createdAt,value
2018-07-13T00:00:20.929Z,15.77
2018-07-13T00:01:20.866Z,15.76
2018-07-13T00:02:20.805Z,15.80
2018-07-13T00:03:20.742Z,15.81
2018-07-13T00:04:20.682Z,15.77
2018-07-13T00:05:20.621Z,15.84
2018-07-13T00:06:20.560Z,15.83
2018-07-13T00:07:20.496Z,15.84
2018-07-13T00:08:20.437Z,15.88
2018-07-13T00:09:20.375Z,15.87
2018-07-13T00:10:20.313Z,15.90
2018-07-13T00:11:20.252Z,15.83
2018-07-13T00:12:20.195Z,15.96
2018-07-13T00:13:20.129Z,15.98
2018-07-13T00:14:20.069Z,15.90
2018-07-13T00:15:20.008Z,15.80
2018-07-13T00:16:19.945Z,15.84
2018-07-13T00:17:19.885Z,15.78
2018-07-13T00:18:19.824Z,15.80
2018-07-13T00:19:19.766Z,15.73
2018-07-13T00:20:19.701Z,15.77
2018-07-13T00:21:19.639Z,15.76
2018-07-13T00:22:19.578Z,15.77
2018-07-13T00:23:19.517Z,15.73
2018-07-13T00:24:19.455Z,15.66
2018-07-13T00:25:19.398Z,15.65
2018-07-13T00:26:19.340Z,15.68
2018-07-13T00:27:19.294Z,15.73
2018-07-13T00:28:19.281Z,15.73
2018-07-13T00:29:19.232Z,15.77
2018-07-13T00:30:19.098Z,15.77
2018-07-13T00:31:19.022Z,15.66
2018-07-13T00:32:18.966Z,15.70
2018-07-13T00:33:18.904Z,15.76
2018-07-13T00:34:18.843Z,15.78
2018-07-13T00:35:18.785Z,15.76
2018-07-13T00:36:18.719Z,15.78
2018-07-13T00:37:18.658Z,15.78
2018-07-13T00:38:18.596Z,15.73
2018-07-13T00:39:18.537Z,15.68
2018-07-13T00:40:18.472Z,15.66
2018-07-13T00:41:18.410Z,15.65
2018-07-13T00:42:18.351Z,15.60
2018-07-13T00:43:18.288Z,15.54
2018-07-13T00:44:18.226Z,15.56
2018-07-13T00:45:18.166Z,15.51
2018-07-13T00:46:18.104Z,15.52
2018-07-13T00:47:18.045Z,15.52
2018-07-13T00:48:17.984Z,15.54
2018-07-13T00:49:17.920Z,15.51
2018-07-13T00:50:17.859Z,15.54
2018-07-13T00:51:17.796Z,15.58
2018-07-13T00:52:17.736Z,15.52
2018-07-13T00:53:17.675Z,15.51
2018-07-13T00:54:17.613Z,15.51
2018-07-13T00:55:17.555Z,15.51
2018-07-13T00:56:17.489Z,15.51
2018-07-13T00:57:17.430Z,15.52
2018-07-13T00:58:17.367Z,15.52
2018-07-13T00:59:17.305Z,15.51
2018-07-13T01:00:17.250Z,15.51
2018-07-13T01:01:17.182Z,15.50
2018-07-13T01:02:17.122Z,15.54
2018-07-13T01:03:17.060Z,15.45
2018-07-13T01:04:16.998Z,15.52
2018-07-13T01:05:16.936Z,15.50
2018-07-13T01:06:16.878Z,15.48
2018-07-13T01:07:16.813Z,15.52
2018-07-13T01:08:16.753Z,15.51
2018-07-13T01:09:16.690Z,15.50
2018-07-13T01:10:16.630Z,15.44
2018-07-13T01:11:16.567Z,15.50
2018-07-13T01:12:16.507Z,15.44
2018-07-13T01:13:16.444Z,15.59
2018-07-13T01:14:16.384Z,15.51
2018-07-13T01:15:16.321Z,15.58
2018-07-13T01:16:16.260Z,15.60
2018-07-13T01:17:16.198Z,15.65
2018-07-13T01:18:16.139Z,15.63
2018-07-13T01:19:16.076Z,15.69
2018-07-13T01:20:16.015Z,15.78
2018-07-13T01:21:15.958Z,15.77
2018-07-13T01:22:15.898Z,15.65
2018-07-13T01:23:15.829Z,15.66
2018-07-13T01:24:15.771Z,15.60
2018-07-13T01:25:15.708Z,15.59
2018-07-13T01:26:15.646Z,15.58
2018-07-13T01:27:15.586Z,15.59
2018-07-13T01:28:15.527Z,15.60
2018-07-13T01:29:15.465Z,15.59
2018-07-13T01:30:15.401Z,15.54
2018-07-13T01:31:15.340Z,15.58
2018-07-13T01:32:15.275Z,15.51
2018-07-13T01:33:15.215Z,15.45
2018-07-13T01:34:15.154Z,15.52
2018-07-13T01:35:15.092Z,15.50
2018-07-13T01:36:15.030Z,15.51
2018-07-13T01:37:14.969Z,15.48
2018-07-13T01:38:14.907Z,15.51
2018-07-13T01:39:14.845Z,15.51
2018-07-13T01:40:14.785Z,15.50
2018-07-13T01:41:14.724Z,15.44
2018-07-13T01:42:14.660Z,15.41
2018-07-13T01:43:14.600Z,15.41
2018-07-13T01:44:14.537Z,15.43
2018-07-13T01:45:14.477Z,15.38
2018-07-13T01:46:14.413Z,15.33
2018-07-13T01:47:14.353Z,15.33
2018-07-13T01:48:14.291Z,15.35
2018-07-13T01:49:14.230Z,15.33
2018-07-13T01:50:14.169Z,15.36
2018-07-13T01:51:14.110Z,15.32
2018-07-13T01:52:14.048Z,15.33
2018-07-13T01:53:13.984Z,15.33
2018-07-13T01:54:13.924Z,15.40
2018-07-13T01:55:13.861Z,15.27
2018-07-13T01:56:13.800Z,15.27
2018-07-13T01:57:13.738Z,15.32
2018-07-13T01:58:13.676Z,15.20
2018-07-13T01:59:13.613Z,15.25
2018-07-13T02:00:13.552Z,15.22
2018-07-13T02:01:13.492Z,15.22
2018-07-13T02:02:13.429Z,15.17
2018-07-13T02:03:13.368Z,15.08
2018-07-13T02:04:13.305Z,15.05
2018-07-13T02:05:13.245Z,15.05
2018-07-13T02:06:13.185Z,15.10
2018-07-13T02:07:13.120Z,15.15
2018-07-13T02:08:13.059Z,15.07
2018-07-13T02:09:12.998Z,15.01
2018-07-13T02:10:12.936Z,14.95
2018-07-13T02:11:12.875Z,14.82
2018-07-13T02:12:12.810Z,14.69
2018-07-13T02:13:12.755Z,14.63
2018-07-13T02:14:12.692Z,14.63
2018-07-13T02:15:12.626Z,14.52
2018-07-13T02:16:12.566Z,14.58
2018-07-13T02:17:12.505Z,14.46
2018-07-13T02:18:12.444Z,14.34
2018-07-13T02:19:12.382Z,14.36
2018-07-13T02:20:12.317Z,14.28
2018-07-13T02:21:12.257Z,14.30
2018-07-13T02:22:12.197Z,14.36
2018-07-13T02:23:12.135Z,14.45
2018-07-13T02:24:12.077Z,14.38
2018-07-13T02:25:12.011Z,14.38
2018-07-13T02:26:11.950Z,14.41
2018-07-13T02:27:11.886Z,14.52
2018-07-13T02:28:11.828Z,14.48
2018-07-13T02:29:11.764Z,14.58
2018-07-13T02:30:11.704Z,14.53
2018-07-13T02:31:11.643Z,14.58
2018-07-13T02:32:11.579Z,14.41
2018-07-13T02:33:11.519Z,14.53
2018-07-13T02:34:11.456Z,14.52
2018-07-13T02:35:11.393Z,14.45
2018-07-13T02:36:11.333Z,14.55
2018-07-13T02:37:11.270Z,14.46
2018-07-13T02:38:11.208Z,14.44
2018-07-13T02:39:11.163Z,14.40
2018-07-13T02:40:11.084Z,14.36
2018-07-13T02:41:11.035Z,14.36
2018-07-13T02:42:10.962Z,14.36
2018-07-13T02:43:10.900Z,14.44
2018-07-13T02:44:10.838Z,14.34
2018-07-13T02:45:10.774Z,14.33
2018-07-13T02:46:10.717Z,14.23
2018-07-13T02:47:10.652Z,14.28
2018-07-13T02:48:10.590Z,14.27
2018-07-13T02:49:10.527Z,14.38
2018-07-13T02:50:10.466Z,14.26
2018-07-13T02:51:10.399Z,14.27
2018-07-13T02:52:10.342Z,14.31
2018-07-13T02:53:10.283Z,14.27
2018-07-13T02:54:10.220Z,14.28
2018-07-13T02:55:10.156Z,14.28
2018-07-13T02:56:10.097Z,14.31
2018-07-13T02:57:10.033Z,14.31
2018-07-13T02:58:09.972Z,14.23
2018-07-13T02:59:09.909Z,14.26
2018-07-13T03:00:09.868Z,14.22
2018-07-13T03:01:09.784Z,14.13
2018-07-13T03:02:09.723Z,14.19
2018-07-13T03:03:09.659Z,14.15
2018-07-13T03:04:09.603Z,14.08
2018-07-13T03:05:09.540Z,14.08
2018-07-13T03:06:09.474Z,14.09
2018-07-13T03:07:09.419Z,14.05
2018-07-13T03:08:09.351Z,14.03
2018-07-13T03:09:09.287Z,14.05
2018-07-13T03:10:09.231Z,14.00
2018-07-13T03:11:09.164Z,14.04
2018-07-13T03:12:09.103Z,14.08
2018-07-13T03:13:09.040Z,14.21
2018-07-13T03:14:08.979Z,14.13
2018-07-13T03:15:08.922Z,14.22
2018-07-13T03:16:08.857Z,14.16
2018-07-13T03:17:08.793Z,14.21
2018-07-13T03:18:08.732Z,14.19
2018-07-13T03:19:08.668Z,14.28
2018-07-13T03:20:08.605Z,14.19
2018-07-13T03:21:08.545Z,14.31
2018-07-13T03:22:08.502Z,14.21
2018-07-13T03:23:08.421Z,14.22
2018-07-13T03:24:08.361Z,14.28
2018-07-13T03:25:08.296Z,14.27
2018-07-13T03:26:08.238Z,14.30
2018-07-13T03:27:08.174Z,14.27
2018-07-13T03:28:08.112Z,14.30
2018-07-13T03:29:08.048Z,14.33
2018-07-13T03:30:07.987Z,14.22
2018-07-13T03:31:07.928Z,14.16
2018-07-13T03:32:07.861Z,14.15
2018-07-13T03:33:07.801Z,14.09
2018-07-13T03:34:07.738Z,14.13
2018-07-13T03:35:07.684Z,14.04
2018-07-13T03:36:07.616Z,14.09
2018-07-13T03:37:07.552Z,14.04
2018-07-13T03:38:07.490Z,14.03
2018-07-13T03:39:07.428Z,14.08
2018-07-13T03:40:07.366Z,14.12
2018-07-13T03:41:07.303Z,14.09
2018-07-13T03:42:07.244Z,14.03
2018-07-13T03:43:07.181Z,14.08
2018-07-13T03:44:07.120Z,14.12
2018-07-13T03:45:07.055Z,14.09
2018-07-13T03:46:06.994Z,14.00
2018-07-13T03:47:06.931Z,14.08
2018-07-13T03:48:06.869Z,14.08
2018-07-13T03:49:06.807Z,14.05
2018-07-13T03:50:06.745Z,14.03
2018-07-13T03:51:06.684Z,14.11
2018-07-13T03:52:06.623Z,14.09
2018-07-13T03:53:06.559Z,14.08
2018-07-13T03:54:06.535Z,14.08
2018-07-13T03:55:06.438Z,14.09
2018-07-13T03:56:06.373Z,14.05
2018-07-13T03:57:06.316Z,14.08
2018-07-13T03:58:06.246Z,14.11
2018-07-13T03:59:06.187Z,14.05
2018-07-13T04:00:06.126Z,13.97
2018-07-13T04:01:06.062Z,14.04
2018-07-13T04:02:06.001Z,13.96
2018-07-13T04:03:05.938Z,14.05
2018-07-13T04:04:05.880Z,14.00
2018-07-13T04:05:05.816Z,13.96
2018-07-13T04:06:05.752Z,13.98
2018-07-13T04:07:05.746Z,13.97
2018-07-13T04:08:05.628Z,14.01
2018-07-13T04:09:05.568Z,13.91
2018-07-13T04:10:05.504Z,13.93
2018-07-13T04:11:05.443Z,14.00
2018-07-13T04:12:05.384Z,14.00
2018-07-13T04:13:05.317Z,13.97
2018-07-13T04:14:05.258Z,13.94
2018-07-13T04:15:05.195Z,14.03
2018-07-13T04:16:05.133Z,13.96
2018-07-13T04:17:05.071Z,13.93
2018-07-13T04:18:05.009Z,13.97
2018-07-13T04:19:04.944Z,14.01
2018-07-13T04:20:04.884Z,14.04
2018-07-13T04:21:04.822Z,14.09
2018-07-13T04:22:04.762Z,14.15
2018-07-13T04:23:04.699Z,14.15
2018-07-13T04:24:04.638Z,14.33
2018-07-13T04:25:04.574Z,14.26
2018-07-13T04:26:04.512Z,14.36
2018-07-13T04:27:04.449Z,14.40
2018-07-13T04:28:04.386Z,14.40
2018-07-13T04:29:04.324Z,14.38
2018-07-13T04:30:04.265Z,14.41
2018-07-13T04:31:04.202Z,14.48
2018-07-13T04:32:04.139Z,14.51
2018-07-13T04:33:04.078Z,14.52
2018-07-13T04:34:04.059Z,14.61
2018-07-13T04:35:03.952Z,14.52
2018-07-13T04:36:03.890Z,14.52
2018-07-13T04:37:03.829Z,14.73
2018-07-13T04:38:03.770Z,14.69
2018-07-13T04:39:03.706Z,14.83
2018-07-13T04:40:03.644Z,14.82
2018-07-13T04:41:03.649Z,14.87
2018-07-13T04:42:03.519Z,14.90
2018-07-13T04:43:03.458Z,14.93
2018-07-13T04:44:03.397Z,15.03
2018-07-13T04:45:03.332Z,15.03
2018-07-13T04:46:03.272Z,14.99
2018-07-13T04:47:03.213Z,15.05
2018-07-13T04:48:03.147Z,15.11
2018-07-13T04:49:03.087Z,15.08
2018-07-13T04:50:03.053Z,15.14
2018-07-13T04:51:02.962Z,15.12
2018-07-13T04:52:02.935Z,15.15
2018-07-13T04:53:02.839Z,15.17
2018-07-13T04:54:02.778Z,15.30
2018-07-13T04:55:02.713Z,15.27
2018-07-13T04:56:02.656Z,15.35
2018-07-13T04:57:02.592Z,15.40
2018-07-13T04:58:02.529Z,15.40
2018-07-13T04:59:02.466Z,15.47
2018-07-13T05:00:02.409Z,15.45
2018-07-13T05:01:02.345Z,15.51
2018-07-13T05:02:02.283Z,15.58
2018-07-13T05:03:02.222Z,15.56
2018-07-13T05:04:02.158Z,15.68
2018-07-13T05:05:02.098Z,15.80
2018-07-13T05:06:02.036Z,15.72
2018-07-13T05:07:01.973Z,15.78
2018-07-13T05:08:01.915Z,15.77
2018-07-13T05:09:01.851Z,15.81
2018-07-13T05:10:01.788Z,15.87
2018-07-13T05:11:01.728Z,15.85
2018-07-13T05:12:01.665Z,15.96
2018-07-13T05:13:01.604Z,16.03
2018-07-13T05:14:01.544Z,15.99
2018-07-13T05:15:01.482Z,16.13
2018-07-13T05:16:01.421Z,16.13
2018-07-13T05:17:01.357Z,16.13
2018-07-13T05:18:01.297Z,16.18
2018-07-13T05:19:01.237Z,16.18
2018-07-13T05:20:01.172Z,16.29
2018-07-13T05:21:01.115Z,16.29
2018-07-13T05:22:01.049Z,16.28
2018-07-13T05:23:00.988Z,16.39
2018-07-13T05:24:00.926Z,16.42
2018-07-13T05:25:00.866Z,16.46
2018-07-13T05:26:00.807Z,16.54
2018-07-13T05:27:00.743Z,16.47
2018-07-13T05:28:00.686Z,16.57
2018-07-13T05:29:00.619Z,16.61
2018-07-13T05:30:00.559Z,16.62
2018-07-13T05:31:00.505Z,16.64
2018-07-13T05:32:00.434Z,16.62
2018-07-13T05:33:00.376Z,16.73
2018-07-13T05:34:00.312Z,16.72
2018-07-13T05:35:00.252Z,16.84
2018-07-13T05:36:00.193Z,16.77
2018-07-13T05:37:00.132Z,16.82
2018-07-13T05:38:00.067Z,16.83
2018-07-13T05:39:00.011Z,16.90
2018-07-13T05:39:59.946Z,16.92
2018-07-13T05:40:59.884Z,16.97
2018-07-13T05:41:59.824Z,16.94
2018-07-13T05:42:59.762Z,16.99
2018-07-13T05:43:59.702Z,17.06
2018-07-13T05:44:59.642Z,17.13
2018-07-13T05:45:59.588Z,17.06
2018-07-13T05:46:59.519Z,17.06
2018-07-13T05:47:59.460Z,17.10
2018-07-13T05:48:59.396Z,17.17
2018-07-13T05:49:59.336Z,17.17
2018-07-13T05:50:59.274Z,17.27
2018-07-13T05:51:59.215Z,17.31
2018-07-13T05:52:59.152Z,17.32
2018-07-13T05:53:59.093Z,17.41
2018-07-13T05:54:59.029Z,17.46
2018-07-13T05:55:58.974Z,17.45
2018-07-13T05:56:58.910Z,17.47
2018-07-13T05:57:58.850Z,17.56
2018-07-13T05:58:58.787Z,17.53
2018-07-13T05:59:58.727Z,17.54
2018-07-13T06:00:58.665Z,17.63
2018-07-13T06:01:58.604Z,17.62
2018-07-13T06:02:58.542Z,17.71
2018-07-13T06:03:58.539Z,17.84
2018-07-13T06:04:58.422Z,17.83
2018-07-13T06:05:58.360Z,17.84
2018-07-13T06:06:58.299Z,17.90
2018-07-13T06:07:58.242Z,17.97
2018-07-13T06:08:58.181Z,17.97
2018-07-13T06:09:58.119Z,18.11
2018-07-13T06:10:58.057Z,18.17
2018-07-13T06:11:57.997Z,18.17
2018-07-13T06:12:57.966Z,18.24
2018-07-13T06:13:57.877Z,18.26
2018-07-13T06:14:57.850Z,18.30
2018-07-13T06:15:57.756Z,18.38
2018-07-13T06:16:57.695Z,18.30
2018-07-13T06:17:57.637Z,18.28
2018-07-13T06:18:57.575Z,18.42
2018-07-13T06:19:57.516Z,18.38
2018-07-13T06:20:57.456Z,18.54
2018-07-13T06:21:57.393Z,18.42
2018-07-13T06:22:57.333Z,18.49
2018-07-13T06:23:57.275Z,18.54
2018-07-13T06:24:57.214Z,18.58
2018-07-13T06:25:57.153Z,18.63
2018-07-13T06:26:57.092Z,18.60
2018-07-13T06:27:57.031Z,18.63
2018-07-13T06:28:56.975Z,18.75
2018-07-13T06:29:56.911Z,18.70
2018-07-13T06:30:56.863Z,18.71
2018-07-13T06:31:56.793Z,18.82
2018-07-13T06:32:56.734Z,18.89
2018-07-13T06:33:56.671Z,18.85
2018-07-13T06:34:56.610Z,18.86
2018-07-13T06:35:56.548Z,18.86
2018-07-13T06:36:56.492Z,18.94
2018-07-13T06:37:56.432Z,18.98
2018-07-13T06:38:56.368Z,19.08
2018-07-13T06:39:56.311Z,19.16
2018-07-13T06:40:56.250Z,19.23
2018-07-13T06:41:56.190Z,19.26
2018-07-13T06:42:56.130Z,19.30
2018-07-13T06:43:56.069Z,19.42
2018-07-13T06:44:56.064Z,19.53
2018-07-13T06:45:55.949Z,19.60
2018-07-13T06:46:55.892Z,19.59
2018-07-13T06:47:55.830Z,19.74
2018-07-13T06:48:55.769Z,19.74
2018-07-13T06:49:55.712Z,19.71
2018-07-13T06:50:55.651Z,19.82
2018-07-13T06:51:55.590Z,19.97
2018-07-13T06:52:55.532Z,19.93
2018-07-13T06:53:55.472Z,20.02
2018-07-13T06:54:55.417Z,20.04
2018-07-13T06:55:55.350Z,20.18
2018-07-13T06:56:55.306Z,20.18
2018-07-13T06:57:55.231Z,20.27
2018-07-13T06:58:55.172Z,20.25
2018-07-13T06:59:55.115Z,20.36
2018-07-13T07:00:55.056Z,20.37
2018-07-13T07:01:54.995Z,20.44
2018-07-13T07:02:54.936Z,20.34
2018-07-13T07:03:54.877Z,20.58
2018-07-13T07:04:54.818Z,20.56
2018-07-13T07:05:54.758Z,20.60
2018-07-13T07:06:54.702Z,20.67
2018-07-13T07:07:54.641Z,20.71
2018-07-13T07:08:54.581Z,20.75
2018-07-13T07:09:54.521Z,20.83
2018-07-13T07:10:54.460Z,20.85
2018-07-13T07:11:54.401Z,20.88
2018-07-13T07:12:54.343Z,20.97
2018-07-13T07:13:54.285Z,20.95
2018-07-13T07:14:54.224Z,20.95
2018-07-13T07:15:54.165Z,21.03
2018-07-13T07:16:54.107Z,21.14
2018-07-13T07:17:54.049Z,21.14
2018-07-13T07:18:53.987Z,21.25
2018-07-13T07:19:53.933Z,21.32
2018-07-13T07:20:53.871Z,21.30
2018-07-13T07:21:53.812Z,21.35
2018-07-13T07:22:53.755Z,21.45
2018-07-13T07:23:53.694Z,21.45
2018-07-13T07:24:53.636Z,21.41
2018-07-13T07:25:53.578Z,21.47
2018-07-13T07:26:53.517Z,21.56
2018-07-13T07:27:53.459Z,21.56
2018-07-13T07:28:53.404Z,21.69
2018-07-13T07:29:53.342Z,21.75
2018-07-13T07:30:53.284Z,21.80
2018-07-13T07:31:53.230Z,21.91
2018-07-13T07:32:53.167Z,21.81
2018-07-13T07:33:53.107Z,21.75
2018-07-13T07:34:53.048Z,21.63
2018-07-13T07:35:52.990Z,21.71
2018-07-13T07:36:52.932Z,21.67
2018-07-13T07:37:52.875Z,21.81
2018-07-13T07:38:52.815Z,21.81
2018-07-13T07:39:52.755Z,22.00
2018-07-13T07:40:52.699Z,22.04
2018-07-13T07:41:52.641Z,22.07
2018-07-13T07:42:52.583Z,22.16
2018-07-13T07:43:52.527Z,22.30
2018-07-13T07:44:52.464Z,22.34
2018-07-13T07:45:52.408Z,22.46
2018-07-13T07:46:52.347Z,22.52
2018-07-13T07:47:52.289Z,22.56
2018-07-13T07:48:52.232Z,22.62
2018-07-13T07:49:52.190Z,22.67
2018-07-13T07:50:52.114Z,22.55
2018-07-13T07:51:52.059Z,22.46
2018-07-13T07:52:51.999Z,22.37
2018-07-13T07:53:51.942Z,22.34
2018-07-13T07:54:51.883Z,22.30
2018-07-13T07:55:51.826Z,22.25
2018-07-13T07:56:51.767Z,22.28
2018-07-13T07:57:51.708Z,22.19
2018-07-13T07:58:51.651Z,22.28
2018-07-13T07:59:51.593Z,22.31
2018-07-13T08:00:51.533Z,22.33
2018-07-13T08:01:51.556Z,22.27
2018-07-13T08:02:51.492Z,22.23
2018-07-13T08:03:51.362Z,22.37
2018-07-13T08:04:51.304Z,22.36
2018-07-13T08:05:51.246Z,22.56
2018-07-13T08:06:51.580Z,22.70
2018-07-13T08:07:51.129Z,22.81
2018-07-13T08:08:51.072Z,22.83
2018-07-13T08:09:51.015Z,22.83
2018-07-13T08:10:50.956Z,22.76
2018-07-13T08:11:50.898Z,22.83
2018-07-13T08:12:50.843Z,22.81
2018-07-13T08:13:50.818Z,22.80
2018-07-13T08:14:50.724Z,22.78
2018-07-13T08:15:50.669Z,22.81
2018-07-13T08:16:50.609Z,22.83
2018-07-13T08:17:50.584Z,22.68
2018-07-13T08:18:50.509Z,22.68
2018-07-13T08:19:50.435Z,22.67
2018-07-13T08:20:50.379Z,22.68
2018-07-13T08:21:50.321Z,22.67
2018-07-13T08:22:50.265Z,22.74
2018-07-13T08:23:50.205Z,22.80
2018-07-13T08:24:50.146Z,22.83
2018-07-13T08:25:50.091Z,22.95
2018-07-13T08:26:50.046Z,23.03
2018-07-13T08:27:49.972Z,23.11
2018-07-13T08:28:49.915Z,23.28
2018-07-13T08:29:49.858Z,23.42
2018-07-13T08:30:49.800Z,23.33
2018-07-13T08:31:49.742Z,23.41
2018-07-13T08:32:49.684Z,23.46
2018-07-13T08:33:49.627Z,23.48
2018-07-13T08:34:49.567Z,23.46
2018-07-13T08:35:49.512Z,23.37
2018-07-13T08:36:49.454Z,23.28
2018-07-13T08:37:49.469Z,23.28
2018-07-13T08:38:49.341Z,23.25
2018-07-13T08:39:49.284Z,23.23
2018-07-13T08:40:49.227Z,23.44
2018-07-13T08:41:49.168Z,23.42
2018-07-13T08:42:49.110Z,23.59
2018-07-13T08:43:49.052Z,23.51
2018-07-13T08:44:48.996Z,23.51
2018-07-13T08:45:48.943Z,23.51
2018-07-13T08:46:48.878Z,23.54
2018-07-13T08:47:48.824Z,23.63
2018-07-13T08:48:48.769Z,23.70
2018-07-13T08:49:48.706Z,23.64
2018-07-13T08:50:48.649Z,23.71
2018-07-13T08:51:48.687Z,23.74
2018-07-13T08:52:48.535Z,23.73
2018-07-13T08:53:48.481Z,23.71
2018-07-13T08:54:48.416Z,23.76
2018-07-13T08:55:48.364Z,23.78
2018-07-13T08:56:48.306Z,23.73
2018-07-13T08:57:48.250Z,23.71
2018-07-13T08:58:48.197Z,23.69
2018-07-13T08:59:48.183Z,23.67
2018-07-13T09:00:48.080Z,23.81
2018-07-13T09:01:48.080Z,23.85
2018-07-13T09:02:47.961Z,24.00
2018-07-13T09:03:47.908Z,24.33
2018-07-13T09:04:47.854Z,24.52
2018-07-13T09:05:47.871Z,24.74
2018-07-13T09:06:47.736Z,24.97
2018-07-13T09:07:47.679Z,25.11
2018-07-13T09:08:47.624Z,25.30
2018-07-13T09:09:47.564Z,25.31
2018-07-13T09:10:47.563Z,25.45
2018-07-13T09:11:47.478Z,25.52
2018-07-13T09:12:47.413Z,25.61
2018-07-13T09:13:47.337Z,25.67
2018-07-13T09:14:47.280Z,25.55
2018-07-13T09:15:47.224Z,25.53
2018-07-13T09:16:47.168Z,25.49
2018-07-13T09:17:47.113Z,25.46
2018-07-13T09:18:47.055Z,25.40
2018-07-13T09:19:46.997Z,25.49
2018-07-13T09:20:46.942Z,25.55
2018-07-13T09:21:46.886Z,25.75
2018-07-13T09:22:46.828Z,26.01
2018-07-13T09:23:46.772Z,26.39
2018-07-13T09:24:46.716Z,26.57
2018-07-13T09:25:46.662Z,26.76
2018-07-13T09:26:46.603Z,26.95
2018-07-13T09:27:46.550Z,26.64
2018-07-13T09:28:46.493Z,26.27
2018-07-13T09:29:46.438Z,26.03
2018-07-13T09:30:46.384Z,25.75
2018-07-13T09:31:46.326Z,25.52
2018-07-13T09:32:46.272Z,25.37
2018-07-13T09:33:46.216Z,25.28
2018-07-13T09:34:46.162Z,25.21
2018-07-13T09:35:46.107Z,25.14
2018-07-13T09:36:46.051Z,25.49
2018-07-13T09:37:45.995Z,26.80
2018-07-13T09:38:45.937Z,27.83
2018-07-13T09:39:45.883Z,28.66
2018-07-13T09:40:45.827Z,29.40
2018-07-13T09:41:45.775Z,29.98
2018-07-13T09:42:45.718Z,30.05
2018-07-13T09:43:45.665Z,30.13
2018-07-13T09:44:45.610Z,30.30
2018-07-13T09:45:45.557Z,30.56
2018-07-13T09:46:45.591Z,31.11
2018-07-13T09:47:45.457Z,31.37
2018-07-13T09:48:45.397Z,31.68
2018-07-13T09:49:45.347Z,32.02
2018-07-13T09:50:45.292Z,32.35
2018-07-13T09:51:45.251Z,32.08
2018-07-13T09:52:45.188Z,32.17
2018-07-13T09:53:45.178Z,31.91
2018-07-13T09:54:45.088Z,31.59
2018-07-13T09:55:45.035Z,31.60
2018-07-13T09:56:44.987Z,30.99
2018-07-13T09:57:44.944Z,29.56
2018-07-13T09:58:44.883Z,28.68
2018-07-13T09:59:44.832Z,28.24
2018-07-13T10:00:44.923Z,28.89
2018-07-13T10:01:44.733Z,29.86
2018-07-13T10:02:44.680Z,30.40
2018-07-13T10:03:44.631Z,31.05
2018-07-13T10:04:44.582Z,31.56
2018-07-13T10:05:44.532Z,31.19
2018-07-13T10:06:44.481Z,30.20
2018-07-13T10:07:44.431Z,29.22
2018-07-13T10:08:44.380Z,28.64
2018-07-13T10:09:44.328Z,27.90
2018-07-13T10:10:44.279Z,27.40
2018-07-13T10:11:44.227Z,27.01
2018-07-13T10:12:44.176Z,26.63
2018-07-13T10:13:44.123Z,26.78
2018-07-13T10:14:44.076Z,26.86
2018-07-13T10:15:44.023Z,26.86
2018-07-13T10:16:43.971Z,26.75
2018-07-13T10:17:43.923Z,26.53
2018-07-13T10:18:43.869Z,26.31
2018-07-13T10:19:43.815Z,26.19
2018-07-13T10:20:43.781Z,26.04
2018-07-13T10:21:43.717Z,26.01
2018-07-13T10:22:43.658Z,25.82
2018-07-13T10:23:43.609Z,25.75
2018-07-13T10:24:43.557Z,25.53
2018-07-13T10:25:43.500Z,25.55
2018-07-13T10:26:43.445Z,25.56
2018-07-13T10:27:43.394Z,25.68
2018-07-13T10:28:43.336Z,26.80
2018-07-13T10:29:43.289Z,27.75
2018-07-13T10:30:43.233Z,28.44
2018-07-13T10:31:43.174Z,28.94
2018-07-13T10:32:43.135Z,29.52
2018-07-13T10:33:43.072Z,29.86
2018-07-13T10:34:43.022Z,29.84
2018-07-13T10:35:42.968Z,30.17
2018-07-13T10:36:42.909Z,30.15
2018-07-13T10:37:42.860Z,30.49
2018-07-13T10:38:42.808Z,30.82
2018-07-13T10:39:42.754Z,31.02
2018-07-13T10:40:42.697Z,31.37
2018-07-13T10:41:42.651Z,31.29
2018-07-13T10:42:42.596Z,31.39
2018-07-13T10:43:42.543Z,31.38
2018-07-13T10:44:42.494Z,31.30
2018-07-13T10:45:42.477Z,31.23
2018-07-13T10:46:42.394Z,31.22
2018-07-13T10:47:42.353Z,30.83
2018-07-13T10:48:42.289Z,30.74
2018-07-13T10:49:42.235Z,30.56
2018-07-13T10:50:42.184Z,30.52
2018-07-13T10:51:42.137Z,30.49
2018-07-13T10:52:42.083Z,30.37
2018-07-13T10:53:42.032Z,30.71
2018-07-13T10:54:41.980Z,30.95
2018-07-13T10:55:41.931Z,30.74
2018-07-13T10:56:41.878Z,30.75
2018-07-13T10:57:41.827Z,30.45
2018-07-13T10:58:41.874Z,30.55
2018-07-13T10:59:41.726Z,30.56
2018-07-13T11:00:41.678Z,30.56
2018-07-13T11:01:41.628Z,30.55
2018-07-13T11:02:41.590Z,30.74
2018-07-13T11:03:41.535Z,30.90
2018-07-13T11:04:41.476Z,30.89
2018-07-13T11:05:41.430Z,30.90
2018-07-13T11:06:41.372Z,30.56
2018-07-13T11:07:41.336Z,30.24
2018-07-13T11:08:41.276Z,30.13
2018-07-13T11:09:41.224Z,29.68
2018-07-13T11:10:41.171Z,30.18
2018-07-13T11:11:41.125Z,29.68
2018-07-13T11:12:41.071Z,29.13
2018-07-13T11:13:41.027Z,28.68
2018-07-13T11:14:40.969Z,28.15
2018-07-13T11:15:40.918Z,27.83
2018-07-13T11:16:40.865Z,27.64
2018-07-13T11:17:40.813Z,27.82
2018-07-13T11:18:40.764Z,28.17
2018-07-13T11:19:40.713Z,28.01
2018-07-13T11:20:40.660Z,27.87
2018-07-13T11:21:40.608Z,27.60
2018-07-13T11:22:40.567Z,27.72
2018-07-13T11:23:40.503Z,27.57
2018-07-13T11:24:40.453Z,27.50
2018-07-13T11:25:40.398Z,27.34
2018-07-13T11:26:40.345Z,27.27
2018-07-13T11:27:40.292Z,27.32
2018-07-13T11:28:40.244Z,27.37
2018-07-13T11:29:40.219Z,27.49
2018-07-13T11:30:40.132Z,27.45
2018-07-13T11:31:40.078Z,27.50
2018-07-13T11:32:40.023Z,27.47
2018-07-13T11:33:39.970Z,27.37
2018-07-13T11:34:39.917Z,27.19
2018-07-13T11:35:39.864Z,27.17
2018-07-13T11:36:39.885Z,27.15
2018-07-13T11:37:39.756Z,27.19
2018-07-13T11:38:39.702Z,27.30
2018-07-13T11:39:39.647Z,27.38
2018-07-13T11:40:39.599Z,27.37
2018-07-13T11:41:39.546Z,27.38
2018-07-13T11:42:39.483Z,27.42
2018-07-13T11:43:39.428Z,27.31
2018-07-13T11:44:39.376Z,27.19
2018-07-13T11:45:39.317Z,27.17
2018-07-13T11:46:39.266Z,27.15
2018-07-13T11:47:39.213Z,27.20
2018-07-13T11:48:39.163Z,27.25
2018-07-13T11:49:39.104Z,27.38
2018-07-13T11:50:39.047Z,27.38
2018-07-13T11:51:38.997Z,27.38
2018-07-13T11:52:38.939Z,27.27
2018-07-13T11:53:38.884Z,27.19
2018-07-13T11:54:38.829Z,27.15
2018-07-13T11:55:38.775Z,27.13
2018-07-13T11:56:38.723Z,27.22
2018-07-13T11:57:38.666Z,27.16
2018-07-13T11:58:38.612Z,27.12
2018-07-13T11:59:38.554Z,26.97
2018-07-13T12:00:38.565Z,26.88
2018-07-13T12:01:38.453Z,26.83
2018-07-13T12:02:38.388Z,26.75
2018-07-13T12:03:38.337Z,26.79
2018-07-13T12:04:38.280Z,26.79
2018-07-13T12:05:38.223Z,26.68
2018-07-13T12:06:38.169Z,26.52
2018-07-13T12:07:38.142Z,26.53
2018-07-13T12:08:38.061Z,26.43
2018-07-13T12:09:38.006Z,26.45
2018-07-13T12:10:37.947Z,26.27
2018-07-13T12:11:37.891Z,26.26
2018-07-13T12:12:37.838Z,26.38
2018-07-13T12:13:37.782Z,26.51
2018-07-13T12:14:37.725Z,26.49
2018-07-13T12:15:37.671Z,26.48
2018-07-13T12:16:37.647Z,26.58
2018-07-13T12:17:37.587Z,26.65
2018-07-13T12:18:37.504Z,26.73
2018-07-13T12:19:37.452Z,26.86
2018-07-13T12:20:37.393Z,26.90
2018-07-13T12:21:37.338Z,27.03
2018-07-13T12:22:37.281Z,27.25
2018-07-13T12:23:37.226Z,27.42
2018-07-13T12:24:37.172Z,27.42
2018-07-13T12:25:37.112Z,27.44
2018-07-13T12:26:37.064Z,27.47
2018-07-13T12:27:37.006Z,27.49
2018-07-13T12:28:36.952Z,27.63
2018-07-13T12:29:36.894Z,27.45
2018-07-13T12:30:36.839Z,27.54
2018-07-13T12:31:36.802Z,27.53
2018-07-13T12:32:36.729Z,27.49
2018-07-13T12:33:36.674Z,27.41
2018-07-13T12:34:36.616Z,27.32
2018-07-13T12:35:36.561Z,27.15
2018-07-13T12:36:36.507Z,27.20
2018-07-13T12:37:36.452Z,27.17
2018-07-13T12:38:36.399Z,27.20
2018-07-13T12:39:36.390Z,27.27
2018-07-13T12:40:36.286Z,27.34
2018-07-13T12:41:36.231Z,27.53
2018-07-13T12:42:36.175Z,27.54
2018-07-13T12:43:36.119Z,27.57
2018-07-13T12:44:36.064Z,27.68
2018-07-13T12:45:36.008Z,27.75
2018-07-13T12:46:35.953Z,27.78
2018-07-13T12:47:35.899Z,27.82
2018-07-13T12:48:35.842Z,27.94
2018-07-13T12:49:35.791Z,28.10
2018-07-13T12:50:35.739Z,28.13
2018-07-13T12:51:35.675Z,28.22